sensor_id;sensor_type;location;lat;lon;timestamp;P1;durP1;ratioP1;P2;durP2;ratioP2
85381;SDS011;75790;40.308;44.272;2024-01-30T00:01:51;21.08;;;9.52;;
85381;SDS011;75790;40.308;44.272;2024-01-30T00:04:17;20.38;;;8.25;;
85381;SDS011;75790;40.308;44.272;2024-01-30T00:06:46;19.13;;;8.63;;
85381;SDS011;75790;40.308;44.272;2024-01-30T00:09:12;17.42;;;7.45;;
85381;SDS011;75790;40.308;44.272;2024-01-30T00:11:38;21.17;;;8.43;;
85381;SDS011;75790;40.308;44.272;2024-01-30T00:14:04;19.35;;;8.63;;
85381;SDS011;75790;40.308;44.272;2024-01-30T00:16:30;21.15;;;8.63;;
85381;SDS011;75790;40.308;44.272;2024-01-30T00:18:56;18.55;;;8.20;;
85381;SDS011;75790;40.308;44.272;2024-01-30T00:21:22;16.27;;;7.78;;
85381;SDS011;75790;40.308;44.272;2024-01-30T00:23:48;20.02;;;7.68;;
85381;SDS011;75790;40.308;44.272;2024-01-30T00:26:14;18.23;;;8.13;;
85381;SDS011;75790;40.308;44.272;2024-01-30T00:28:41;19.73;;;8.25;;
85381;SDS011;75790;40.308;44.272;2024-01-30T00:31:07;17.55;;;8.20;;
85381;SDS011;75790;40.308;44.272;2024-01-30T00:33:34;19.95;;;8.02;;
85381;SDS011;75790;40.308;44.272;2024-01-30T00:35:59;18.10;;;8.30;;
85381;SDS011;75790;40.308;44.272;2024-01-30T00:38:25;20.20;;;8.27;;
85381;SDS011;75790;40.308;44.272;2024-01-30T00:40:51;19.17;;;8.23;;
85381;SDS011;75790;40.308;44.272;2024-01-30T00:43:17;16.73;;;8.30;;
85381;SDS011;75790;40.308;44.272;2024-01-30T00:45:43;18.50;;;7.55;;
85381;SDS011;75790;40.308;44.272;2024-01-30T00:48:09;17.70;;;8.05;;
85381;SDS011;75790;40.308;44.272;2024-01-30T00:50:35;18.45;;;8.20;;
85381;SDS011;75790;40.308;44.272;2024-01-30T00:53:01;20.15;;;8.52;;
85381;SDS011;75790;40.308;44.272;2024-01-30T00:55:27;18.23;;;8.20;;
85381;SDS011;75790;40.308;44.272;2024-01-30T00:57:53;19.25;;;8.30;;
85381;SDS011;75790;40.308;44.272;2024-01-30T01:00:18;20.00;;;8.10;;
85381;SDS011;75790;40.308;44.272;2024-01-30T01:02:46;20.48;;;8.50;;
85381;SDS011;75790;40.308;44.272;2024-01-30T01:05:11;19.88;;;9.05;;
85381;SDS011;75790;40.308;44.272;2024-01-30T01:07:37;19.50;;;8.90;;
85381;SDS011;75790;40.308;44.272;2024-01-30T01:10:05;21.83;;;8.10;;
85381;SDS011;75790;40.308;44.272;2024-01-30T01:12:31;24.40;;;9.95;;
85381;SDS011;75790;40.308;44.272;2024-01-30T01:14:57;21.98;;;9.48;;
85381;SDS011;75790;40.308;44.272;2024-01-30T01:17:23;20.23;;;10.05;;
85381;SDS011;75790;40.308;44.272;2024-01-30T01:19:49;25.20;;;10.45;;
85381;SDS011;75790;40.308;44.272;2024-01-30T01:22:15;25.02;;;9.85;;
85381;SDS011;75790;40.308;44.272;2024-01-30T01:24:42;23.88;;;10.25;;
85381;SDS011;75790;40.308;44.272;2024-01-30T01:27:08;27.35;;;11.50;;
85381;SDS011;75790;40.308;44.272;2024-01-30T01:29:34;26.90;;;11.98;;
85381;SDS011;75790;40.308;44.272;2024-01-30T01:31:59;29.23;;;11.50;;
85381;SDS011;75790;40.308;44.272;2024-01-30T01:34:25;28.02;;;12.25;;
85381;SDS011;75790;40.308;44.272;2024-01-30T01:36:51;31.70;;;12.93;;
85381;SDS011;75790;40.308;44.272;2024-01-30T01:39:20;30.17;;;12.00;;
85381;SDS011;75790;40.308;44.272;2024-01-30T01:41:48;33.58;;;12.15;;
85381;SDS011;75790;40.308;44.272;2024-01-30T01:44:14;27.00;;;10.90;;
85381;SDS011;75790;40.308;44.272;2024-01-30T01:46:39;27.50;;;11.65;;
85381;SDS011;75790;40.308;44.272;2024-01-30T01:49:06;27.67;;;11.00;;
85381;SDS011;75790;40.308;44.272;2024-01-30T01:51:33;27.67;;;11.50;;
85381;SDS011;75790;40.308;44.272;2024-01-30T01:54:01;29.98;;;12.25;;
85381;SDS011;75790;40.308;44.272;2024-01-30T01:56:28;25.00;;;11.35;;
85381;SDS011;75790;40.308;44.272;2024-01-30T01:58:55;27.98;;;11.65;;
85381;SDS011;75790;40.308;44.272;2024-01-30T02:01:21;27.38;;;12.10;;
85381;SDS011;75790;40.308;44.272;2024-01-30T02:03:47;24.23;;;10.80;;
85381;SDS011;75790;40.308;44.272;2024-01-30T02:06:16;31.02;;;11.65;;
85381;SDS011;75790;40.308;44.272;2024-01-30T02:08:42;24.85;;;11.00;;
85381;SDS011;75790;40.308;44.272;2024-01-30T02:11:08;27.17;;;11.40;;
85381;SDS011;75790;40.308;44.272;2024-01-30T02:13:37;31.00;;;11.80;;
85381;SDS011;75790;40.308;44.272;2024-01-30T02:16:03;28.15;;;12.82;;
85381;SDS011;75790;40.308;44.272;2024-01-30T02:18:29;31.33;;;11.98;;
85381;SDS011;75790;40.308;44.272;2024-01-30T02:20:56;33.30;;;13.40;;
85381;SDS011;75790;40.308;44.272;2024-01-30T02:23:26;33.08;;;12.90;;
85381;SDS011;75790;40.308;44.272;2024-01-30T02:25:52;31.77;;;13.68;;
85381;SDS011;75790;40.308;44.272;2024-01-30T02:28:19;32.40;;;13.85;;
85381;SDS011;75790;40.308;44.272;2024-01-30T02:30:45;31.17;;;13.68;;
85381;SDS011;75790;40.308;44.272;2024-01-30T02:33:11;36.85;;;13.95;;
85381;SDS011;75790;40.308;44.272;2024-01-30T02:35:37;31.50;;;13.35;;
85381;SDS011;75790;40.308;44.272;2024-01-30T02:38:04;28.83;;;12.82;;
85381;SDS011;75790;40.308;44.272;2024-01-30T02:40:30;33.78;;;13.82;;
85381;SDS011;75790;40.308;44.272;2024-01-30T02:42:57;40.35;;;17.60;;
85381;SDS011;75790;40.308;44.272;2024-01-30T02:45:24;47.72;;;17.77;;
85381;SDS011;75790;40.308;44.272;2024-01-30T02:47:50;49.95;;;19.38;;
85381;SDS011;75790;40.308;44.272;2024-01-30T02:50:16;45.35;;;20.45;;
85381;SDS011;75790;40.308;44.272;2024-01-30T02:52:41;39.33;;;17.30;;
85381;SDS011;75790;40.308;44.272;2024-01-30T02:55:10;50.53;;;19.55;;
85381;SDS011;75790;40.308;44.272;2024-01-30T02:57:37;41.63;;;17.98;;
85381;SDS011;75790;40.308;44.272;2024-01-30T03:00:03;43.58;;;18.42;;
85381;SDS011;75790;40.308;44.272;2024-01-30T03:02:31;39.50;;;16.23;;
85381;SDS011;75790;40.308;44.272;2024-01-30T03:04:57;45.58;;;19.80;;
85381;SDS011;75790;40.308;44.272;2024-01-30T03:07:23;50.50;;;21.30;;
85381;SDS011;75790;40.308;44.272;2024-01-30T03:09:49;40.50;;;17.63;;
85381;SDS011;75790;40.308;44.272;2024-01-30T03:12:15;48.92;;;19.35;;
85381;SDS011;75790;40.308;44.272;2024-01-30T03:14:41;40.95;;;17.23;;
85381;SDS011;75790;40.308;44.272;2024-01-30T03:17:07;42.53;;;16.92;;
85381;SDS011;75790;40.308;44.272;2024-01-30T03:19:33;47.88;;;19.17;;
85381;SDS011;75790;40.308;44.272;2024-01-30T03:21:59;45.53;;;20.38;;
85381;SDS011;75790;40.308;44.272;2024-01-30T03:24:25;43.53;;;19.25;;
85381;SDS011;75790;40.308;44.272;2024-01-30T03:26:51;48.28;;;20.17;;
85381;SDS011;75790;40.308;44.272;2024-01-30T03:29:17;42.38;;;17.10;;
85381;SDS011;75790;40.308;44.272;2024-01-30T03:31:43;40.95;;;17.33;;
85381;SDS011;75790;40.308;44.272;2024-01-30T03:34:08;35.58;;;15.70;;
85381;SDS011;75790;40.308;44.272;2024-01-30T03:36:34;38.83;;;16.30;;
85381;SDS011;75790;40.308;44.272;2024-01-30T03:39:00;35.53;;;14.60;;
85381;SDS011;75790;40.308;44.272;2024-01-30T03:41:26;31.80;;;14.38;;
85381;SDS011;75790;40.308;44.272;2024-01-30T03:43:52;37.75;;;14.77;;
85381;SDS011;75790;40.308;44.272;2024-01-30T03:46:18;39.05;;;14.77;;
85381;SDS011;75790;40.308;44.272;2024-01-30T03:48:44;36.53;;;14.73;;
85381;SDS011;75790;40.308;44.272;2024-01-30T03:51:11;46.25;;;18.55;;
85381;SDS011;75790;40.308;44.272;2024-01-30T03:53:43;46.35;;;19.30;;
85381;SDS011;75790;40.308;44.272;2024-01-30T03:56:11;40.10;;;17.75;;
85381;SDS011;75790;40.308;44.272;2024-01-30T03:58:38;48.90;;;20.10;;
85381;SDS011;75790;40.308;44.272;2024-01-30T04:01:04;50.30;;;21.02;;
85381;SDS011;75790;40.308;44.272;2024-01-30T04:03:30;47.75;;;19.27;;
85381;SDS011;75790;40.308;44.272;2024-01-30T04:05:56;57.28;;;23.42;;
85381;SDS011;75790;40.308;44.272;2024-01-30T04:08:22;45.42;;;19.55;;
85381;SDS011;75790;40.308;44.272;2024-01-30T04:10:48;53.97;;;22.40;;
85381;SDS011;75790;40.308;44.272;2024-01-30T04:13:14;58.60;;;23.60;;
85381;SDS011;75790;40.308;44.272;2024-01-30T04:15:40;55.50;;;23.63;;
85381;SDS011;75790;40.308;44.272;2024-01-30T04:18:06;55.60;;;23.08;;
85381;SDS011;75790;40.308;44.272;2024-01-30T04:20:32;54.33;;;21.65;;
85381;SDS011;75790;40.308;44.272;2024-01-30T04:22:57;53.67;;;22.70;;
85381;SDS011;75790;40.308;44.272;2024-01-30T04:25:23;49.28;;;19.55;;
85381;SDS011;75790;40.308;44.272;2024-01-30T04:27:49;60.30;;;24.88;;
85381;SDS011;75790;40.308;44.272;2024-01-30T04:30:15;53.13;;;21.27;;
85381;SDS011;75790;40.308;44.272;2024-01-30T04:32:41;55.65;;;23.13;;
85381;SDS011;75790;40.308;44.272;2024-01-30T04:35:07;63.10;;;25.35;;
85381;SDS011;75790;40.308;44.272;2024-01-30T04:37:33;59.05;;;24.00;;
85381;SDS011;75790;40.308;44.272;2024-01-30T04:39:58;55.50;;;23.38;;
85381;SDS011;75790;40.308;44.272;2024-01-30T04:42:24;56.30;;;23.02;;
85381;SDS011;75790;40.308;44.272;2024-01-30T04:44:50;51.95;;;21.08;;
85381;SDS011;75790;40.308;44.272;2024-01-30T04:47:16;58.17;;;23.60;;
85381;SDS011;75790;40.308;44.272;2024-01-30T04:49:42;57.30;;;24.65;;
85381;SDS011;75790;40.308;44.272;2024-01-30T04:52:08;59.25;;;23.67;;
85381;SDS011;75790;40.308;44.272;2024-01-30T04:54:34;62.88;;;23.77;;
85381;SDS011;75790;40.308;44.272;2024-01-30T04:57:00;55.83;;;24.20;;
85381;SDS011;75790;40.308;44.272;2024-01-30T04:59:27;64.40;;;23.75;;
85381;SDS011;75790;40.308;44.272;2024-01-30T05:01:53;59.13;;;23.05;;
85381;SDS011;75790;40.308;44.272;2024-01-30T05:04:18;61.95;;;25.30;;
85381;SDS011;75790;40.308;44.272;2024-01-30T05:06:45;55.90;;;23.13;;
85381;SDS011;75790;40.308;44.272;2024-01-30T05:09:10;56.10;;;22.65;;
85381;SDS011;75790;40.308;44.272;2024-01-30T05:11:37;55.55;;;22.88;;
85381;SDS011;75790;40.308;44.272;2024-01-30T05:14:04;58.15;;;24.35;;
85381;SDS011;75790;40.308;44.272;2024-01-30T05:16:31;53.22;;;22.98;;
85381;SDS011;75790;40.308;44.272;2024-01-30T05:18:57;49.42;;;21.30;;
85381;SDS011;75790;40.308;44.272;2024-01-30T05:21:23;54.90;;;21.58;;
85381;SDS011;75790;40.308;44.272;2024-01-30T05:23:49;54.70;;;22.00;;
85381;SDS011;75790;40.308;44.272;2024-01-30T05:26:15;44.50;;;19.45;;
85381;SDS011;75790;40.308;44.272;2024-01-30T05:28:41;46.17;;;20.77;;
85381;SDS011;75790;40.308;44.272;2024-01-30T05:31:09;47.13;;;19.02;;
85381;SDS011;75790;40.308;44.272;2024-01-30T05:33:35;51.67;;;21.83;;
85381;SDS011;75790;40.308;44.272;2024-01-30T05:36:01;53.88;;;22.60;;
85381;SDS011;75790;40.308;44.272;2024-01-30T05:38:27;45.47;;;19.92;;
85381;SDS011;75790;40.308;44.272;2024-01-30T05:40:57;43.70;;;18.27;;
85381;SDS011;75790;40.308;44.272;2024-01-30T05:43:25;41.42;;;17.77;;
85381;SDS011;75790;40.308;44.272;2024-01-30T05:45:51;43.75;;;18.27;;
85381;SDS011;75790;40.308;44.272;2024-01-30T05:48:17;44.40;;;17.17;;
85381;SDS011;75790;40.308;44.272;2024-01-30T05:50:43;44.88;;;19.30;;
85381;SDS011;75790;40.308;44.272;2024-01-30T05:53:10;37.55;;;16.67;;
85381;SDS011;75790;40.308;44.272;2024-01-30T05:55:36;41.53;;;18.30;;
85381;SDS011;75790;40.308;44.272;2024-01-30T05:58:02;43.75;;;19.50;;
85381;SDS011;75790;40.308;44.272;2024-01-30T06:00:29;43.45;;;19.33;;
85381;SDS011;75790;40.308;44.272;2024-01-30T06:02:55;43.28;;;18.23;;
85381;SDS011;75790;40.308;44.272;2024-01-30T06:05:21;45.03;;;20.30;;
85381;SDS011;75790;40.308;44.272;2024-01-30T06:07:46;45.78;;;20.27;;
85381;SDS011;75790;40.308;44.272;2024-01-30T06:10:12;52.20;;;21.67;;
85381;SDS011;75790;40.308;44.272;2024-01-30T06:12:38;49.10;;;21.52;;
85381;SDS011;75790;40.308;44.272;2024-01-30T06:15:05;47.92;;;21.75;;
85381;SDS011;75790;40.308;44.272;2024-01-30T06:17:31;52.75;;;20.92;;
85381;SDS011;75790;40.308;44.272;2024-01-30T06:19:57;40.05;;;18.13;;
85381;SDS011;75790;40.308;44.272;2024-01-30T06:22:24;52.45;;;21.80;;
85381;SDS011;75790;40.308;44.272;2024-01-30T06:24:50;54.72;;;23.58;;
85381;SDS011;75790;40.308;44.272;2024-01-30T06:27:16;55.97;;;22.80;;
85381;SDS011;75790;40.308;44.272;2024-01-30T06:29:42;48.28;;;22.08;;
85381;SDS011;75790;40.308;44.272;2024-01-30T06:32:08;45.42;;;20.73;;
85381;SDS011;75790;40.308;44.272;2024-01-30T06:34:34;58.42;;;25.25;;
85381;SDS011;75790;40.308;44.272;2024-01-30T06:37:00;52.67;;;24.52;;
85381;SDS011;75790;40.308;44.272;2024-01-30T06:39:26;49.50;;;23.90;;
85381;SDS011;75790;40.308;44.272;2024-01-30T06:41:52;55.15;;;25.23;;
85381;SDS011;75790;40.308;44.272;2024-01-30T06:44:18;54.92;;;24.30;;
85381;SDS011;75790;40.308;44.272;2024-01-30T06:46:43;52.50;;;24.90;;
85381;SDS011;75790;40.308;44.272;2024-01-30T06:49:09;50.10;;;22.77;;
85381;SDS011;75790;40.308;44.272;2024-01-30T06:51:35;50.70;;;24.55;;
85381;SDS011;75790;40.308;44.272;2024-01-30T06:54:01;57.00;;;26.80;;
85381;SDS011;75790;40.308;44.272;2024-01-30T06:56:27;57.33;;;25.65;;
85381;SDS011;75790;40.308;44.272;2024-01-30T06:58:53;62.42;;;28.27;;
85381;SDS011;75790;40.308;44.272;2024-01-30T07:01:19;57.75;;;29.00;;
85381;SDS011;75790;40.308;44.272;2024-01-30T07:03:47;61.75;;;28.08;;
85381;SDS011;75790;40.308;44.272;2024-01-30T07:06:13;57.85;;;26.38;;
85381;SDS011;75790;40.308;44.272;2024-01-30T07:08:39;58.60;;;26.50;;
85381;SDS011;75790;40.308;44.272;2024-01-30T07:11:05;57.20;;;27.15;;
85381;SDS011;75790;40.308;44.272;2024-01-30T07:13:31;63.45;;;29.38;;
85381;SDS011;75790;40.308;44.272;2024-01-30T07:15:57;61.15;;;28.63;;
85381;SDS011;75790;40.308;44.272;2024-01-30T07:18:23;59.15;;;27.85;;
85381;SDS011;75790;40.308;44.272;2024-01-30T07:20:49;66.65;;;30.73;;
85381;SDS011;75790;40.308;44.272;2024-01-30T07:23:16;61.20;;;29.23;;
85381;SDS011;75790;40.308;44.272;2024-01-30T07:25:43;66.85;;;31.55;;
85381;SDS011;75790;40.308;44.272;2024-01-30T07:28:14;72.90;;;32.17;;
85381;SDS011;75790;40.308;44.272;2024-01-30T07:30:42;59.58;;;28.33;;
85381;SDS011;75790;40.308;44.272;2024-01-30T07:33:08;69.13;;;31.70;;
85381;SDS011;75790;40.308;44.272;2024-01-30T07:35:34;59.88;;;29.27;;
85381;SDS011;75790;40.308;44.272;2024-01-30T07:38:00;61.88;;;27.33;;
85381;SDS011;75790;40.308;44.272;2024-01-30T07:40:26;67.63;;;32.05;;
85381;SDS011;75790;40.308;44.272;2024-01-30T07:42:53;64.82;;;29.85;;
85381;SDS011;75790;40.308;44.272;2024-01-30T07:45:19;73.10;;;31.52;;
85381;SDS011;75790;40.308;44.272;2024-01-30T07:47:49;71.85;;;33.10;;
85381;SDS011;75790;40.308;44.272;2024-01-30T07:50:15;63.53;;;30.15;;
85381;SDS011;75790;40.308;44.272;2024-01-30T07:52:41;65.68;;;30.15;;
85381;SDS011;75790;40.308;44.272;2024-01-30T07:55:08;68.85;;;31.40;;
85381;SDS011;75790;40.308;44.272;2024-01-30T07:57:34;67.40;;;30.50;;
85381;SDS011;75790;40.308;44.272;2024-01-30T08:00:02;56.30;;;27.58;;
85381;SDS011;75790;40.308;44.272;2024-01-30T08:02:28;70.88;;;32.35;;
85381;SDS011;75790;40.308;44.272;2024-01-30T08:04:54;72.80;;;31.17;;
85381;SDS011;75790;40.308;44.272;2024-01-30T08:07:20;67.28;;;30.80;;
85381;SDS011;75790;40.308;44.272;2024-01-30T08:09:47;73.00;;;32.55;;
85381;SDS011;75790;40.308;44.272;2024-01-30T08:12:13;70.57;;;32.88;;
85381;SDS011;75790;40.308;44.272;2024-01-30T08:14:39;72.10;;;32.03;;
85381;SDS011;75790;40.308;44.272;2024-01-30T08:17:06;70.85;;;33.10;;
85381;SDS011;75790;40.308;44.272;2024-01-30T08:19:32;73.30;;;32.90;;
85381;SDS011;75790;40.308;44.272;2024-01-30T08:21:59;70.68;;;34.42;;
85381;SDS011;75790;40.308;44.272;2024-01-30T08:24:24;73.00;;;33.92;;
85381;SDS011;75790;40.308;44.272;2024-01-30T08:26:50;66.60;;;30.63;;
85381;SDS011;75790;40.308;44.272;2024-01-30T08:29:16;67.13;;;32.50;;
85381;SDS011;75790;40.308;44.272;2024-01-30T08:31:42;69.57;;;32.50;;
85381;SDS011;75790;40.308;44.272;2024-01-30T08:34:09;66.43;;;30.60;;
85381;SDS011;75790;40.308;44.272;2024-01-30T08:36:35;75.25;;;35.15;;
85381;SDS011;75790;40.308;44.272;2024-01-30T08:39:01;72.60;;;34.95;;
85381;SDS011;75790;40.308;44.272;2024-01-30T08:41:28;71.15;;;35.00;;
85381;SDS011;75790;40.308;44.272;2024-01-30T08:43:54;72.53;;;35.08;;
85381;SDS011;75790;40.308;44.272;2024-01-30T08:46:19;69.30;;;31.92;;
85381;SDS011;75790;40.308;44.272;2024-01-30T08:48:46;71.38;;;33.83;;
85381;SDS011;75790;40.308;44.272;2024-01-30T08:51:12;64.43;;;29.80;;
85381;SDS011;75790;40.308;44.272;2024-01-30T08:53:40;65.57;;;32.17;;
85381;SDS011;75790;40.308;44.272;2024-01-30T08:56:06;70.95;;;32.65;;
85381;SDS011;75790;40.308;44.272;2024-01-30T08:58:32;62.90;;;31.05;;
85381;SDS011;75790;40.308;44.272;2024-01-30T09:00:58;58.85;;;29.48;;
85381;SDS011;75790;40.308;44.272;2024-01-30T09:03:24;53.50;;;26.75;;
85381;SDS011;75790;40.308;44.272;2024-01-30T09:05:50;55.83;;;26.55;;
85381;SDS011;75790;40.308;44.272;2024-01-30T09:08:16;54.40;;;25.75;;
85381;SDS011;75790;40.308;44.272;2024-01-30T09:10:42;59.28;;;28.25;;
85381;SDS011;75790;40.308;44.272;2024-01-30T09:13:09;59.10;;;28.95;;
85381;SDS011;75790;40.308;44.272;2024-01-30T09:15:35;61.42;;;28.38;;
85381;SDS011;75790;40.308;44.272;2024-01-30T09:18:01;63.25;;;30.45;;
85381;SDS011;75790;40.308;44.272;2024-01-30T09:20:27;61.42;;;30.00;;
85381;SDS011;75790;40.308;44.272;2024-01-30T09:22:52;57.17;;;28.95;;
85381;SDS011;75790;40.308;44.272;2024-01-30T09:25:18;68.03;;;30.90;;
85381;SDS011;75790;40.308;44.272;2024-01-30T09:27:44;62.38;;;30.52;;
85381;SDS011;75790;40.308;44.272;2024-01-30T09:30:10;61.05;;;29.50;;
85381;SDS011;75790;40.308;44.272;2024-01-30T09:32:36;60.55;;;28.23;;
85381;SDS011;75790;40.308;44.272;2024-01-30T09:35:02;62.90;;;30.23;;
85381;SDS011;75790;40.308;44.272;2024-01-30T09:37:28;66.60;;;29.85;;
85381;SDS011;75790;40.308;44.272;2024-01-30T09:39:54;62.17;;;29.15;;
85381;SDS011;75790;40.308;44.272;2024-01-30T09:44:57;63.00;;;29.85;;
85381;SDS011;75790;40.308;44.272;2024-01-30T09:47:23;66.78;;;31.92;;
85381;SDS011;75790;40.308;44.272;2024-01-30T09:49:49;67.57;;;31.15;;
85381;SDS011;75790;40.308;44.272;2024-01-30T09:52:15;69.97;;;32.33;;
85381;SDS011;75790;40.308;44.272;2024-01-30T09:54:41;66.07;;;32.60;;
85381;SDS011;75790;40.308;44.272;2024-01-30T09:57:07;69.07;;;31.67;;
85381;SDS011;75790;40.308;44.272;2024-01-30T09:59:34;73.07;;;33.78;;
85381;SDS011;75790;40.308;44.272;2024-01-30T10:02:00;69.97;;;33.30;;
85381;SDS011;75790;40.308;44.272;2024-01-30T10:04:26;69.03;;;32.00;;
85381;SDS011;75790;40.308;44.272;2024-01-30T10:06:52;71.30;;;33.33;;
85381;SDS011;75790;40.308;44.272;2024-01-30T10:09:18;72.53;;;32.90;;
85381;SDS011;75790;40.308;44.272;2024-01-30T10:11:44;64.00;;;30.85;;
85381;SDS011;75790;40.308;44.272;2024-01-30T10:14:10;62.22;;;29.50;;
85381;SDS011;75790;40.308;44.272;2024-01-30T10:16:36;66.00;;;30.30;;
85381;SDS011;75790;40.308;44.272;2024-01-30T10:19:01;61.33;;;30.70;;
85381;SDS011;75790;40.308;44.272;2024-01-30T10:21:29;52.58;;;27.27;;
85381;SDS011;75790;40.308;44.272;2024-01-30T10:23:55;60.58;;;30.00;;
85381;SDS011;75790;40.308;44.272;2024-01-30T10:26:21;57.67;;;28.88;;
85381;SDS011;75790;40.308;44.272;2024-01-30T10:28:47;52.22;;;25.83;;
85381;SDS011;75790;40.308;44.272;2024-01-30T10:31:17;55.03;;;26.60;;
85381;SDS011;75790;40.308;44.272;2024-01-30T10:33:44;58.10;;;27.40;;
85381;SDS011;75790;40.308;44.272;2024-01-30T10:36:11;59.70;;;28.20;;
85381;SDS011;75790;40.308;44.272;2024-01-30T10:38:39;54.63;;;25.70;;
85381;SDS011;75790;40.308;44.272;2024-01-30T10:41:07;56.88;;;27.08;;
85381;SDS011;75790;40.308;44.272;2024-01-30T10:43:39;56.05;;;27.80;;
85381;SDS011;75790;40.308;44.272;2024-01-30T10:48:38;55.85;;;26.05;;
85381;SDS011;75790;40.308;44.272;2024-01-30T10:51:08;58.10;;;27.88;;
85381;SDS011;75790;40.308;44.272;2024-01-30T10:53:35;51.40;;;25.02;;
85381;SDS011;75790;40.308;44.272;2024-01-30T10:56:02;49.75;;;25.52;;
85381;SDS011;75790;40.308;44.272;2024-01-30T10:58:29;49.50;;;24.13;;
85381;SDS011;75790;40.308;44.272;2024-01-30T11:00:55;52.15;;;26.02;;
85381;SDS011;75790;40.308;44.272;2024-01-30T11:03:21;53.38;;;25.30;;
85381;SDS011;75790;40.308;44.272;2024-01-30T11:05:50;51.70;;;24.70;;
85381;SDS011;75790;40.308;44.272;2024-01-30T11:08:26;55.60;;;27.17;;
85381;SDS011;75790;40.308;44.272;2024-01-30T11:10:58;51.95;;;25.60;;
85381;SDS011;75790;40.308;44.272;2024-01-30T11:13:30;50.53;;;24.83;;
85381;SDS011;75790;40.308;44.272;2024-01-30T11:16:03;52.78;;;24.73;;
85381;SDS011;75790;40.308;44.272;2024-01-30T11:18:30;47.88;;;24.83;;
85381;SDS011;75790;40.308;44.272;2024-01-30T11:20:57;59.72;;;27.45;;
85381;SDS011;75790;40.308;44.272;2024-01-30T11:23:23;53.28;;;24.73;;
85381;SDS011;75790;40.308;44.272;2024-01-30T11:25:52;55.60;;;26.25;;
85381;SDS011;75790;40.308;44.272;2024-01-30T11:28:19;49.42;;;23.50;;
85381;SDS011;75790;40.308;44.272;2024-01-30T11:30:46;51.75;;;23.75;;
85381;SDS011;75790;40.308;44.272;2024-01-30T11:33:13;53.42;;;24.52;;
85381;SDS011;75790;40.308;44.272;2024-01-30T11:35:42;52.20;;;26.13;;
85381;SDS011;75790;40.308;44.272;2024-01-30T11:38:15;53.72;;;23.52;;
85381;SDS011;75790;40.308;44.272;2024-01-30T11:40:41;43.60;;;20.60;;
85381;SDS011;75790;40.308;44.272;2024-01-30T11:43:09;49.80;;;26.15;;
85381;SDS011;75790;40.308;44.272;2024-01-30T11:45:35;52.67;;;25.20;;
85381;SDS011;75790;40.308;44.272;2024-01-30T11:48:01;55.20;;;25.63;;
85381;SDS011;75790;40.308;44.272;2024-01-30T11:50:31;58.03;;;26.85;;
85381;SDS011;75790;40.308;44.272;2024-01-30T11:52:58;52.38;;;24.58;;
85381;SDS011;75790;40.308;44.272;2024-01-30T11:55:28;44.58;;;20.95;;
85381;SDS011;75790;40.308;44.272;2024-01-30T11:57:56;52.05;;;25.17;;
85381;SDS011;75790;40.308;44.272;2024-01-30T12:00:23;53.83;;;25.42;;
85381;SDS011;75790;40.308;44.272;2024-01-30T12:02:50;60.95;;;28.02;;
85381;SDS011;75790;40.308;44.272;2024-01-30T12:05:19;58.00;;;27.33;;
85381;SDS011;75790;40.308;44.272;2024-01-30T12:10:12;57.10;;;25.58;;
85381;SDS011;75790;40.308;44.272;2024-01-30T12:12:45;53.85;;;25.98;;
85381;SDS011;75790;40.308;44.272;2024-01-30T12:15:12;57.25;;;26.75;;
85381;SDS011;75790;40.308;44.272;2024-01-30T12:17:38;57.72;;;27.52;;
85381;SDS011;75790;40.308;44.272;2024-01-30T12:22:38;58.47;;;27.80;;
85381;SDS011;75790;40.308;44.272;2024-01-30T12:25:08;55.58;;;25.45;;
85381;SDS011;75790;40.308;44.272;2024-01-30T12:27:44;55.75;;;27.98;;
85381;SDS011;75790;40.308;44.272;2024-01-30T12:30:13;55.00;;;26.50;;
85381;SDS011;75790;40.308;44.272;2024-01-30T12:35:15;55.08;;;25.15;;
85381;SDS011;75790;40.308;44.272;2024-01-30T12:37:43;52.65;;;23.75;;
85381;SDS011;75790;40.308;44.272;2024-01-30T12:40:09;46.47;;;21.70;;
85381;SDS011;75790;40.308;44.272;2024-01-30T12:42:38;54.80;;;25.80;;
85381;SDS011;75790;40.308;44.272;2024-01-30T12:45:04;52.88;;;24.40;;
85381;SDS011;75790;40.308;44.272;2024-01-30T12:47:31;57.95;;;26.70;;
85381;SDS011;75790;40.308;44.272;2024-01-30T12:49:57;63.03;;;28.50;;
85381;SDS011;75790;40.308;44.272;2024-01-30T12:52:23;57.72;;;25.70;;
85381;SDS011;75790;40.308;44.272;2024-01-30T12:54:49;54.72;;;24.98;;
85381;SDS011;75790;40.308;44.272;2024-01-30T12:57:15;61.75;;;27.75;;
85381;SDS011;75790;40.308;44.272;2024-01-30T12:59:42;58.38;;;27.92;;
85381;SDS011;75790;40.308;44.272;2024-01-30T13:02:08;56.33;;;24.88;;
85381;SDS011;75790;40.308;44.272;2024-01-30T13:04:34;63.53;;;28.13;;
85381;SDS011;75790;40.308;44.272;2024-01-30T13:07:00;65.18;;;28.95;;
85381;SDS011;75790;40.308;44.272;2024-01-30T13:09:26;66.38;;;28.23;;
85381;SDS011;75790;40.308;44.272;2024-01-30T13:11:52;60.00;;;27.52;;
85381;SDS011;75790;40.308;44.272;2024-01-30T13:14:18;58.55;;;26.10;;
85381;SDS011;75790;40.308;44.272;2024-01-30T13:16:44;60.13;;;25.50;;
85381;SDS011;75790;40.308;44.272;2024-01-30T13:19:10;60.97;;;27.70;;
85381;SDS011;75790;40.308;44.272;2024-01-30T13:21:36;58.15;;;26.88;;
85381;SDS011;75790;40.308;44.272;2024-01-30T13:24:03;59.15;;;27.27;;
85381;SDS011;75790;40.308;44.272;2024-01-30T13:26:29;54.78;;;25.45;;
85381;SDS011;75790;40.308;44.272;2024-01-30T13:28:56;56.72;;;25.73;;
85381;SDS011;75790;40.308;44.272;2024-01-30T13:31:22;62.42;;;26.40;;
85381;SDS011;75790;40.308;44.272;2024-01-30T13:33:48;65.57;;;29.60;;
85381;SDS011;75790;40.308;44.272;2024-01-30T13:36:14;55.00;;;24.15;;
85381;SDS011;75790;40.308;44.272;2024-01-30T13:38:40;63.08;;;28.48;;
85381;SDS011;75790;40.308;44.272;2024-01-30T13:41:06;57.50;;;24.83;;
85381;SDS011;75790;40.308;44.272;2024-01-30T13:43:32;61.70;;;26.83;;
85381;SDS011;75790;40.308;44.272;2024-01-30T13:45:58;63.95;;;27.40;;
85381;SDS011;75790;40.308;44.272;2024-01-30T13:48:24;58.80;;;24.52;;
85381;SDS011;75790;40.308;44.272;2024-01-30T13:50:50;64.50;;;27.52;;
85381;SDS011;75790;40.308;44.272;2024-01-30T13:53:16;65.05;;;27.30;;
85381;SDS011;75790;40.308;44.272;2024-01-30T13:55:42;57.75;;;25.35;;
85381;SDS011;75790;40.308;44.272;2024-01-30T13:58:07;50.72;;;23.58;;
85381;SDS011;75790;40.308;44.272;2024-01-30T14:00:33;64.07;;;28.38;;
85381;SDS011;75790;40.308;44.272;2024-01-30T14:02:59;51.78;;;24.05;;
85381;SDS011;75790;40.308;44.272;2024-01-30T14:05:28;64.18;;;28.67;;
85381;SDS011;75790;40.308;44.272;2024-01-30T14:07:54;59.47;;;27.98;;
85381;SDS011;75790;40.308;44.272;2024-01-30T14:10:20;62.80;;;28.55;;
85381;SDS011;75790;40.308;44.272;2024-01-30T14:12:46;66.35;;;28.70;;
85381;SDS011;75790;40.308;44.272;2024-01-30T14:15:14;61.65;;;27.27;;
85381;SDS011;75790;40.308;44.272;2024-01-30T14:17:43;57.97;;;25.60;;
85381;SDS011;75790;40.308;44.272;2024-01-30T14:20:10;65.90;;;27.77;;